createdAt,value
2023-02-23T00:01:27.851Z,31.90
2023-02-23T00:03:57.454Z,31.90
2023-02-23T00:06:26.380Z,32.30
2023-02-23T00:08:54.339Z,32.65
2023-02-23T00:11:22.657Z,32.53
2023-02-23T00:13:51.473Z,33.10
2023-02-23T00:16:20.851Z,32.35
2023-02-23T00:18:51.533Z,30.95
2023-02-23T00:21:21.163Z,32.28
2023-02-23T00:23:51.037Z,32.47
2023-02-23T00:26:20.758Z,31.15
2023-02-23T00:28:50.908Z,32.70
2023-02-23T00:31:19.133Z,32.85
2023-02-23T00:33:46.826Z,33.95
2023-02-23T00:36:16.067Z,33.58
2023-02-23T00:38:45.868Z,35.15
2023-02-23T00:41:19.930Z,35.25
2023-02-23T00:43:48.264Z,35.30
2023-02-23T00:46:17.380Z,32.53
2023-02-23T00:48:45.714Z,35.30
2023-02-23T00:51:15.632Z,34.85
2023-02-23T00:53:44.084Z,34.10
2023-02-23T00:56:13.868Z,33.83
2023-02-23T00:58:41.961Z,33.22
2023-02-23T01:01:12.005Z,34.45
2023-02-23T01:03:41.269Z,33.85
2023-02-23T01:06:11.397Z,34.45
2023-02-23T01:08:42.476Z,34.33
2023-02-23T01:11:13.693Z,35.65
2023-02-23T01:13:42.562Z,36.53
2023-02-23T01:16:14.593Z,34.72
2023-02-23T01:18:44.408Z,35.83
2023-02-23T01:21:17.381Z,35.53
2023-02-23T01:23:46.691Z,35.55
2023-02-23T01:26:19.069Z,36.70
2023-02-23T01:28:50.216Z,35.03
2023-02-23T01:31:18.674Z,35.63
2023-02-23T01:33:46.950Z,35.90
2023-02-23T01:36:14.966Z,37.78
2023-02-23T01:38:42.431Z,37.88
2023-02-23T01:41:11.332Z,37.63
2023-02-23T01:43:57.744Z,38.03
2023-02-23T01:46:25.292Z,36.15
2023-02-23T01:48:56.213Z,36.03
2023-02-23T01:51:27.750Z,36.42
2023-02-23T01:54:00.952Z,37.40
2023-02-23T01:56:35.585Z,36.65
2023-02-23T01:59:07.091Z,37.53
2023-02-23T02:01:34.664Z,38.97
2023-02-23T02:04:06.391Z,37.65
2023-02-23T02:06:35.434Z,38.33
2023-02-23T02:09:06.515Z,38.75
2023-02-23T02:11:37.063Z,37.83
2023-02-23T02:14:12.747Z,39.20
2023-02-23T02:17:02.133Z,38.45
2023-02-23T02:20:00.102Z,37.58
2023-02-23T02:22:55.466Z,37.80
2023-02-23T02:25:40.453Z,37.75
2023-02-23T02:28:41.167Z,38.20
2023-02-23T02:31:38.633Z,36.00
2023-02-23T02:34:25.053Z,39.25
2023-02-23T02:37:19.930Z,38.65
2023-02-23T02:40:14.443Z,37.60
2023-02-23T02:42:51.185Z,37.03
2023-02-23T02:45:26.266Z,36.78
2023-02-23T02:48:01.800Z,37.72
2023-02-23T02:50:40.235Z,37.38
2023-02-23T02:53:10.879Z,38.05
2023-02-23T02:55:43.785Z,37.17
2023-02-23T02:58:13.730Z,36.22
2023-02-23T03:01:01.495Z,37.50
2023-02-23T03:03:49.921Z,38.58
2023-02-23T03:06:35.661Z,37.60
2023-02-23T03:12:24.693Z,36.70
2023-02-23T03:15:19.802Z,36.33
2023-02-23T03:18:06.770Z,36.85
2023-02-23T03:21:02.201Z,36.47
2023-02-23T03:23:58.578Z,35.38
2023-02-23T03:26:51.600Z,35.55
2023-02-23T03:29:48.443Z,35.90
2023-02-23T03:32:41.329Z,36.35
2023-02-23T03:35:33.238Z,35.70
2023-02-23T03:38:25.634Z,37.17
2023-02-23T03:41:13.490Z,36.72
2023-02-23T03:44:04.935Z,36.42
2023-02-23T03:46:50.818Z,35.90
2023-02-23T03:49:39.720Z,35.63
2023-02-23T03:52:30.573Z,35.55
2023-02-23T03:55:17.892Z,36.45
2023-02-23T03:58:08.638Z,37.53
2023-02-23T04:00:58.655Z,37.20
2023-02-23T04:03:46.148Z,38.00
2023-02-23T04:06:33.367Z,35.47
2023-02-23T04:09:23.182Z,36.65
2023-02-23T04:12:14.034Z,35.05
2023-02-23T04:14:45.512Z,35.08
2023-02-23T04:17:20.927Z,37.45
2023-02-23T04:19:51.360Z,35.80
2023-02-23T04:22:18.940Z,35.60
2023-02-23T04:24:46.913Z,36.10
2023-02-23T04:27:14.382Z,35.53
2023-02-23T04:29:42.279Z,36.78
2023-02-23T04:32:15.928Z,35.55
2023-02-23T04:34:43.857Z,36.50
2023-02-23T04:37:12.362Z,36.00
2023-02-23T04:39:39.929Z,36.72
2023-02-23T04:42:07.457Z,37.47
2023-02-23T04:44:34.963Z,38.08
2023-02-23T04:47:02.493Z,37.47
2023-02-23T04:49:31.334Z,36.53
2023-02-23T04:51:59.316Z,37.00
2023-02-23T04:54:26.997Z,36.45
2023-02-23T04:56:54.547Z,36.08
2023-02-23T04:59:22.046Z,35.95
2023-02-23T05:01:49.682Z,33.75
2023-02-23T05:04:17.198Z,35.28
2023-02-23T05:06:46.028Z,35.08
2023-02-23T05:09:13.515Z,34.83
2023-02-23T05:11:41.199Z,35.72
2023-02-23T05:14:09.225Z,34.35
2023-02-23T05:16:36.909Z,35.40
2023-02-23T05:19:04.468Z,33.75
2023-02-23T05:21:32.226Z,35.20
2023-02-23T05:24:01.290Z,35.25
2023-02-23T05:26:29.312Z,35.33
2023-02-23T05:28:57.084Z,33.10
2023-02-23T05:31:24.793Z,35.85
2023-02-23T05:33:53.808Z,35.95
2023-02-23T05:36:22.577Z,33.17
2023-02-23T05:38:50.174Z,34.88
2023-02-23T05:41:21.956Z,34.00
2023-02-23T05:43:51.137Z,34.55
2023-02-23T05:46:21.497Z,33.50
2023-02-23T05:48:49.239Z,32.45
2023-02-23T05:51:18.346Z,36.40
2023-02-23T05:53:46.639Z,34.05
2023-02-23T05:56:20.210Z,33.97
2023-02-23T05:58:49.304Z,32.97
2023-02-23T06:01:18.519Z,33.08
2023-02-23T06:03:46.915Z,34.97
2023-02-23T06:06:14.645Z,33.05
2023-02-23T06:08:42.764Z,32.85
2023-02-23T06:11:10.603Z,33.60
2023-02-23T06:13:38.105Z,33.67
2023-02-23T06:16:08.464Z,33.15
2023-02-23T06:18:36.131Z,32.25
2023-02-23T06:21:04.073Z,32.67
2023-02-23T06:23:33.183Z,34.22
2023-02-23T06:26:00.926Z,33.63
2023-02-23T06:28:29.672Z,32.92
2023-02-23T06:30:57.709Z,34.53
2023-02-23T06:33:27.205Z,34.03
2023-02-23T06:35:55.210Z,34.92
2023-02-23T06:38:23.831Z,35.65
2023-02-23T06:40:51.337Z,36.45
2023-02-23T06:43:18.959Z,33.75
2023-02-23T06:45:47.830Z,36.08
2023-02-23T06:48:15.371Z,35.40
2023-02-23T06:50:44.545Z,34.88
2023-02-23T06:53:12.308Z,34.00
2023-02-23T06:55:39.768Z,35.90
2023-02-23T06:58:07.901Z,34.70
2023-02-23T07:00:35.481Z,34.92
2023-02-23T07:03:02.968Z,35.22
2023-02-23T07:05:30.461Z,36.63
2023-02-23T07:07:59.338Z,35.08
2023-02-23T07:10:26.839Z,34.60
2023-02-23T07:12:54.946Z,35.97
2023-02-23T07:15:22.434Z,36.53
2023-02-23T07:17:51.282Z,35.10
2023-02-23T07:20:19.550Z,35.05
2023-02-23T07:22:47.041Z,36.50
2023-02-23T07:25:15.975Z,36.38
2023-02-23T07:27:46.444Z,34.20
2023-02-23T07:30:14.851Z,37.83
2023-02-23T07:32:42.471Z,37.35
2023-02-23T07:35:13.135Z,36.35
2023-02-23T07:37:40.606Z,37.92
2023-02-23T07:40:09.259Z,37.17
2023-02-23T07:42:38.232Z,36.95
2023-02-23T07:45:07.020Z,39.42
2023-02-23T07:47:34.620Z,37.67
2023-02-23T07:50:03.451Z,37.92
2023-02-23T07:52:31.193Z,37.97
2023-02-23T07:54:58.639Z,35.80
2023-02-23T07:57:26.760Z,37.53
2023-02-23T07:59:55.613Z,36.40
2023-02-23T08:02:23.325Z,35.50
2023-02-23T08:04:54.029Z,36.10
2023-02-23T08:07:21.730Z,37.08
2023-02-23T08:09:49.572Z,35.95
2023-02-23T08:12:17.016Z,35.08
2023-02-23T08:14:44.633Z,37.90
2023-02-23T08:17:13.413Z,38.60
2023-02-23T08:19:41.078Z,34.50
2023-02-23T08:22:10.234Z,36.15
2023-02-23T08:24:39.229Z,35.72
2023-02-23T08:27:06.796Z,37.63
2023-02-23T08:29:34.925Z,36.58
2023-02-23T08:32:03.562Z,38.20
2023-02-23T08:34:32.563Z,38.20
2023-02-23T08:37:00.230Z,35.70
2023-02-23T08:39:27.911Z,34.67
2023-02-23T08:41:55.569Z,37.08
2023-02-23T08:44:23.120Z,36.38
2023-02-23T08:46:50.817Z,37.92
2023-02-23T08:49:18.267Z,35.35
2023-02-23T08:51:47.279Z,37.08
2023-02-23T08:54:16.147Z,37.13
2023-02-23T08:56:44.381Z,36.38
2023-02-23T08:59:13.482Z,35.13
2023-02-23T09:01:42.225Z,36.85
2023-02-23T09:04:09.747Z,35.35
2023-02-23T09:06:38.114Z,33.35
2023-02-23T09:09:06.974Z,33.20
2023-02-23T09:11:34.505Z,31.48
2023-02-23T09:14:02.013Z,30.05
2023-02-23T09:16:29.512Z,28.95
2023-02-23T09:19:01.397Z,28.83
2023-02-23T09:21:29.913Z,28.13
2023-02-23T09:23:58.514Z,28.33
2023-02-23T09:26:29.400Z,29.65
2023-02-23T09:28:58.825Z,28.33
2023-02-23T09:31:26.571Z,28.00
2023-02-23T09:33:55.075Z,28.70
2023-02-23T09:36:24.623Z,29.27
2023-02-23T09:38:55.289Z,29.45
2023-02-23T09:41:56.952Z,29.73
2023-02-23T09:44:37.908Z,27.40
2023-02-23T09:47:19.567Z,29.20
2023-02-23T09:49:49.983Z,28.17
2023-02-23T09:52:22.052Z,28.80
2023-02-23T09:54:49.782Z,27.45
2023-02-23T09:57:24.623Z,27.75
2023-02-23T09:59:53.056Z,26.80
2023-02-23T10:02:25.124Z,25.20
2023-02-23T10:04:57.683Z,24.92
2023-02-23T10:07:35.004Z,25.00
2023-02-23T10:10:16.725Z,24.63
2023-02-23T10:12:55.397Z,25.17
2023-02-23T10:15:33.393Z,24.60
2023-02-23T10:18:12.429Z,24.17
2023-02-23T10:20:48.537Z,25.20
2023-02-23T10:23:20.998Z,25.27
2023-02-23T10:25:53.114Z,24.05
2023-02-23T10:28:23.197Z,25.23
2023-02-23T10:30:51.664Z,27.38
2023-02-23T10:33:25.265Z,24.25
2023-02-23T10:36:12.518Z,25.40
2023-02-23T10:38:41.137Z,26.75
2023-02-23T10:41:14.653Z,26.15
2023-02-23T10:43:43.743Z,27.85
2023-02-23T10:46:18.548Z,28.17
2023-02-23T10:48:48.279Z,28.55
2023-02-23T10:51:21.152Z,28.52
2023-02-23T10:53:49.069Z,28.77
2023-02-23T10:56:19.512Z,28.27
2023-02-23T10:58:50.949Z,28.13
2023-02-23T11:01:36.188Z,27.38
2023-02-23T11:04:17.245Z,27.77
2023-02-23T11:06:44.822Z,27.52
2023-02-23T11:09:33.141Z,25.50
2023-02-23T11:12:21.532Z,25.77
2023-02-23T11:14:51.340Z,25.33
2023-02-23T11:17:29.389Z,24.23
2023-02-23T11:20:02.439Z,25.00
2023-02-23T11:22:33.821Z,25.55
2023-02-23T11:25:03.875Z,25.40
2023-02-23T11:27:31.476Z,27.90
2023-02-23T11:30:06.836Z,26.85
2023-02-23T11:32:38.607Z,29.10
2023-02-23T11:35:27.919Z,27.52
2023-02-23T11:37:56.474Z,28.23
2023-02-23T11:40:27.079Z,27.50
2023-02-23T11:42:57.090Z,28.02
2023-02-23T11:45:28.043Z,27.02
2023-02-23T11:47:59.394Z,27.15
2023-02-23T11:50:29.740Z,25.25
2023-02-23T11:53:04.321Z,23.38
2023-02-23T11:55:34.534Z,24.20
2023-02-23T11:58:13.282Z,23.10
2023-02-23T12:00:44.417Z,24.50
2023-02-23T12:03:24.158Z,25.52
2023-02-23T12:05:53.747Z,26.42
2023-02-23T12:08:38.479Z,26.65
2023-02-23T12:11:13.388Z,24.90
2023-02-23T12:13:47.387Z,26.80
2023-02-23T12:16:21.281Z,24.75
2023-02-23T12:18:59.798Z,20.95
2023-02-23T12:21:47.926Z,20.98
2023-02-23T12:24:24.224Z,21.48
2023-02-23T12:26:56.431Z,23.05
2023-02-23T12:29:32.586Z,21.73
2023-02-23T12:32:05.706Z,21.40
2023-02-23T12:34:41.084Z,20.42
2023-02-23T12:42:20.368Z,18.00
2023-02-23T12:44:52.505Z,20.58
2023-02-23T12:47:29.932Z,19.55
2023-02-23T12:50:07.088Z,20.48
2023-02-23T12:52:38.594Z,18.88
2023-02-23T12:55:11.205Z,18.52
2023-02-23T12:57:45.808Z,18.15
2023-02-23T13:00:31.124Z,16.98
2023-02-23T13:03:22.791Z,15.60
2023-02-23T13:05:54.342Z,16.67
2023-02-23T13:08:30.198Z,16.95
2023-02-23T13:11:07.663Z,17.02
2023-02-23T13:13:41.738Z,15.63
2023-02-23T13:16:16.703Z,16.42
2023-02-23T13:18:49.977Z,15.80
2023-02-23T13:21:26.012Z,16.38
2023-02-23T13:23:59.362Z,16.50
2023-02-23T13:26:34.135Z,17.95
2023-02-23T13:29:06.261Z,20.50
2023-02-23T13:31:37.878Z,19.75
2023-02-23T13:34:11.993Z,18.17
2023-02-23T13:36:42.007Z,17.95
2023-02-23T13:39:47.632Z,17.42
2023-02-23T13:42:28.382Z,16.80
2023-02-23T13:45:03.723Z,18.67
2023-02-23T13:47:41.764Z,17.48
2023-02-23T13:50:22.477Z,18.40
2023-02-23T13:52:50.764Z,19.10
2023-02-23T13:55:48.725Z,19.50
2023-02-23T13:58:21.067Z,22.33
2023-02-23T14:00:55.638Z,20.92
2023-02-23T14:03:28.122Z,20.55
2023-02-23T14:06:01.111Z,22.52
2023-02-23T14:08:33.596Z,20.10
2023-02-23T14:11:01.916Z,17.23
2023-02-23T14:13:32.730Z,17.02
2023-02-23T14:16:19.564Z,18.33
2023-02-23T14:18:57.850Z,18.75
2023-02-23T14:21:33.695Z,18.40
2023-02-23T14:24:14.797Z,17.65
2023-02-23T14:26:45.693Z,17.23
2023-02-23T14:29:26.546Z,17.40
2023-02-23T14:31:57.115Z,17.42
2023-02-23T14:34:43.153Z,15.88
2023-02-23T14:37:21.917Z,16.20
2023-02-23T14:39:51.001Z,15.57
2023-02-23T14:42:24.377Z,16.83
2023-02-23T14:44:53.988Z,15.75
2023-02-23T14:47:23.316Z,15.70
2023-02-23T14:49:55.690Z,15.38
2023-02-23T14:52:27.945Z,16.45
2023-02-23T14:55:08.823Z,16.10
2023-02-23T14:57:38.095Z,16.92
2023-02-23T15:00:13.516Z,15.35
2023-02-23T15:02:53.869Z,15.18
2023-02-23T15:05:25.178Z,15.38
2023-02-23T15:07:54.513Z,14.50
2023-02-23T15:10:27.158Z,15.70
2023-02-23T15:12:55.482Z,13.25
2023-02-23T15:15:25.546Z,13.75
2023-02-23T15:17:56.688Z,12.48
2023-02-23T15:20:32.399Z,13.27
2023-02-23T15:23:03.691Z,13.40
2023-02-23T15:25:36.866Z,13.82
2023-02-23T15:28:23.390Z,13.98
2023-02-23T15:30:52.272Z,14.82
2023-02-23T15:33:23.278Z,13.65
2023-02-23T15:35:54.616Z,13.25
2023-02-23T15:38:42.960Z,14.20
2023-02-23T15:41:19.100Z,13.88
2023-02-23T15:43:46.928Z,13.05
2023-02-23T15:46:23.975Z,13.77
2023-02-23T15:48:53.087Z,14.43
2023-02-23T15:51:31.812Z,13.27
2023-02-23T15:54:03.468Z,15.10
2023-02-23T15:56:31.605Z,13.73
2023-02-23T15:59:04.918Z,13.98
2023-02-23T16:01:33.440Z,14.45
2023-02-23T16:04:03.619Z,13.65
2023-02-23T16:06:36.808Z,14.13
2023-02-23T16:09:20.589Z,14.63
2023-02-23T16:11:52.112Z,14.18
2023-02-23T16:14:21.637Z,14.40
2023-02-23T16:16:58.438Z,16.70
2023-02-23T16:19:40.566Z,15.68
2023-02-23T16:22:19.582Z,14.05
2023-02-23T16:24:54.395Z,13.90
2023-02-23T16:27:22.334Z,15.27
2023-02-23T16:30:00.045Z,15.57
2023-02-23T16:32:35.589Z,15.00
2023-02-23T16:35:09.667Z,16.25
2023-02-23T16:37:58.476Z,17.67
2023-02-23T16:40:28.093Z,16.30
2023-02-23T16:42:59.237Z,16.50
2023-02-23T16:45:29.307Z,16.23
2023-02-23T16:48:01.955Z,16.15
2023-02-23T16:50:37.360Z,15.98
2023-02-23T16:55:39.197Z,16.27
2023-02-23T16:58:12.075Z,16.13
2023-02-23T17:00:39.575Z,16.90
2023-02-23T17:03:11.601Z,16.52
2023-02-23T17:05:39.366Z,17.27
2023-02-23T17:08:06.978Z,16.80
2023-02-23T17:10:36.430Z,17.45
2023-02-23T17:13:05.938Z,16.80
2023-02-23T17:15:36.378Z,17.20
2023-02-23T17:18:04.415Z,18.88
2023-02-23T17:20:32.540Z,16.73
2023-02-23T17:23:03.003Z,16.40
2023-02-23T17:25:30.563Z,16.60
2023-02-23T17:28:00.992Z,16.05
2023-02-23T17:30:28.855Z,14.90
2023-02-23T17:32:58.307Z,15.75
2023-02-23T17:35:26.847Z,15.23
2023-02-23T17:37:54.568Z,14.93
2023-02-23T17:40:28.630Z,14.25
2023-02-23T17:42:57.064Z,13.55
2023-02-23T17:45:26.647Z,13.60
2023-02-23T17:47:54.080Z,11.68
2023-02-23T17:50:23.118Z,14.23
2023-02-23T17:52:51.978Z,14.25
2023-02-23T17:55:21.086Z,13.30
2023-02-23T17:57:48.838Z,13.20
2023-02-23T18:00:18.707Z,13.93
2023-02-23T18:02:47.717Z,13.98
2023-02-23T18:05:15.934Z,14.35
2023-02-23T18:07:45.468Z,14.65
2023-02-23T18:10:14.528Z,13.13
2023-02-23T18:12:42.109Z,14.32
2023-02-23T18:15:10.136Z,14.07
2023-02-23T18:17:37.603Z,14.35
2023-02-23T18:20:08.124Z,14.52
2023-02-23T18:22:35.578Z,13.90
2023-02-23T18:25:03.055Z,12.73
2023-02-23T18:27:30.550Z,13.05
2023-02-23T18:29:58.291Z,13.60
2023-02-23T18:32:25.903Z,13.73
2023-02-23T18:34:53.589Z,13.15
2023-02-23T18:37:25.058Z,14.88
2023-02-23T18:39:54.368Z,13.85
2023-02-23T18:42:22.282Z,12.43
2023-02-23T18:44:50.200Z,13.75
2023-02-23T18:47:18.010Z,13.70
2023-02-23T18:49:45.587Z,14.10
2023-02-23T18:52:13.444Z,14.15
2023-02-23T18:54:42.492Z,13.57
2023-02-23T18:57:10.057Z,14.98
2023-02-23T18:59:37.541Z,14.45
2023-02-23T19:02:05.277Z,14.23
2023-02-23T19:04:32.835Z,14.18
2023-02-23T19:07:00.378Z,14.20
2023-02-23T19:09:27.852Z,14.13
2023-02-23T19:11:56.672Z,14.80
2023-02-23T19:14:46.433Z,14.07
2023-02-23T19:17:11.613Z,14.35
2023-02-23T19:19:39.073Z,13.73
2023-02-23T19:22:06.550Z,13.38
2023-02-23T19:24:35.759Z,13.57
2023-02-23T19:27:05.820Z,13.43
2023-02-23T19:29:33.394Z,13.02
2023-02-23T19:32:00.991Z,12.50
2023-02-23T19:34:28.514Z,14.02
2023-02-23T19:36:55.946Z,14.85
2023-02-23T19:39:23.421Z,13.30
2023-02-23T19:41:50.898Z,13.93
2023-02-23T19:44:19.762Z,15.82
2023-02-23T19:46:47.252Z,21.08
2023-02-23T19:49:14.742Z,18.90
2023-02-23T19:51:42.211Z,19.50
2023-02-23T19:54:09.713Z,18.80
2023-02-23T19:56:37.952Z,19.30
2023-02-23T19:59:06.583Z,19.55
2023-02-23T20:01:36.013Z,18.00
2023-02-23T20:04:06.569Z,17.17
2023-02-23T20:06:39.303Z,15.50
2023-02-23T20:09:07.249Z,13.32
2023-02-23T20:11:34.754Z,14.25
2023-02-23T20:14:04.128Z,13.20
2023-02-23T20:16:31.861Z,14.07
2023-02-23T20:19:01.373Z,13.75
2023-02-23T20:21:32.156Z,15.02
2023-02-23T20:24:01.348Z,13.68
2023-02-23T20:26:30.773Z,15.00
2023-02-23T20:28:58.816Z,14.32
2023-02-23T20:31:29.885Z,13.50
2023-02-23T20:33:59.554Z,13.45
2023-02-23T20:36:28.438Z,12.88
2023-02-23T20:38:55.910Z,14.35
2023-02-23T20:41:23.746Z,14.00
2023-02-23T20:43:51.654Z,14.38
2023-02-23T20:46:19.722Z,15.02
2023-02-23T20:48:48.881Z,15.10
2023-02-23T20:51:19.751Z,15.18
2023-02-23T20:53:49.613Z,15.20
2023-02-23T20:56:19.537Z,14.95
2023-02-23T20:58:47.492Z,15.07
2023-02-23T21:01:16.143Z,15.60
2023-02-23T21:03:43.784Z,16.35
2023-02-23T21:06:11.282Z,15.70
2023-02-23T21:08:39.870Z,15.80
2023-02-23T21:11:09.294Z,16.55
2023-02-23T21:13:37.454Z,15.82
2023-02-23T21:16:05.293Z,14.80
2023-02-23T21:18:32.839Z,15.88
2023-02-23T21:21:09.418Z,16.75
2023-02-23T21:23:37.559Z,15.57
2023-02-23T21:26:14.094Z,14.70
2023-02-23T21:28:44.282Z,15.70
2023-02-23T21:31:14.161Z,16.08
2023-02-23T21:33:43.212Z,15.50
2023-02-23T21:36:12.540Z,16.05
2023-02-23T21:38:42.837Z,17.13
2023-02-23T21:41:11.278Z,16.20
2023-02-23T21:43:41.417Z,15.48
2023-02-23T21:46:14.001Z,16.67
2023-02-23T21:48:42.039Z,16.40
2023-02-23T21:51:12.250Z,14.70
2023-02-23T21:53:40.428Z,9.75
2023-02-23T21:56:11.508Z,8.45
2023-02-23T21:58:39.979Z,8.60
2023-02-23T22:01:13.496Z,8.00
2023-02-23T22:03:45.047Z,6.78
2023-02-23T22:06:13.223Z,6.40
2023-02-23T22:08:42.954Z,7.55
2023-02-23T22:11:17.434Z,6.60
2023-02-23T22:13:45.466Z,5.85
2023-02-23T22:16:15.389Z,5.50
2023-02-23T22:18:43.495Z,6.47
2023-02-23T22:21:12.660Z,6.03
2023-02-23T22:23:41.486Z,6.05
2023-02-23T22:26:09.363Z,6.05
2023-02-23T22:28:37.330Z,7.40
2023-02-23T22:31:08.084Z,6.72
2023-02-23T22:33:37.855Z,5.93
2023-02-23T22:36:08.010Z,6.95
2023-02-23T22:38:35.896Z,5.95
2023-02-23T22:41:05.308Z,6.03
2023-02-23T22:43:34.163Z,6.70
2023-02-23T22:46:01.887Z,6.38
2023-02-23T22:48:29.597Z,5.80
2023-02-23T22:50:59.546Z,6.15
2023-02-23T22:53:27.634Z,7.45
2023-02-23T22:55:56.660Z,7.10
2023-02-23T22:58:26.179Z,7.18
2023-02-23T23:01:04.023Z,7.10
2023-02-23T23:03:35.951Z,6.85
2023-02-23T23:06:08.408Z,6.75
2023-02-23T23:08:38.676Z,7.03
2023-02-23T23:11:09.552Z,7.05
2023-02-23T23:13:40.862Z,7.57
2023-02-23T23:16:16.853Z,7.15
2023-02-23T23:18:55.093Z,6.85
2023-02-23T23:21:27.936Z,6.57
2023-02-23T23:23:57.172Z,7.80
2023-02-23T23:26:26.309Z,7.95
2023-02-23T23:28:55.734Z,7.65
2023-02-23T23:31:27.964Z,7.82
2023-02-23T23:33:59.885Z,8.05
2023-02-23T23:36:31.907Z,7.72
2023-02-23T23:39:00.024Z,7.30
2023-02-23T23:41:29.310Z,7.60
2023-02-23T23:43:59.024Z,7.45
2023-02-23T23:46:28.267Z,7.20
2023-02-23T23:48:58.468Z,7.63
2023-02-23T23:51:28.398Z,7.40
2023-02-23T23:53:59.330Z,6.47
2023-02-23T23:56:30.415Z,5.65
2023-02-23T23:58:59.211Z,5.70
